Toco, Chile
Current Conditions -  °F | °C
As of 1:00 AM on Wednesday 22 Oct 2014 (Local Time) from SCCF Reporting Station
Clear Clear  
Wind Chill: 54°   Ceiling: Unl
Heat Index: 54°   Visibility: 6mi
Dew Point:   Wind: 10mph
Humidity: 14%   Direction: 100°E
Pressure: 30.3"   Gusts: NA
Location:  22.07°S, 69.59°W
Report Text: SCCF 220500Z 10009KT CAVOK 12/M15 Q1026
Loading
Personal Weather Stations






























Interactive Weather Map
Tropical Storm Tracking
New forecast layout! Learn more

10-Day Weather Forecast

Advertisements
Track Severe Weather on mobile